createdAt,value
2022-10-26T00:00:01.688Z,18.47
2022-10-26T00:01:24.084Z,19.87
2022-10-26T00:02:46.433Z,17.33
2022-10-26T00:04:08.666Z,16.57
2022-10-26T00:05:33.643Z,15.87
2022-10-26T00:06:55.646Z,15.63
2022-10-26T00:08:17.666Z,19.40
2022-10-26T00:09:39.672Z,28.10
2022-10-26T00:11:01.855Z,20.47
2022-10-26T00:12:24.783Z,18.63
2022-10-26T00:13:47.891Z,18.30
2022-10-26T00:15:10.431Z,15.97
2022-10-26T00:16:32.444Z,16.63
2022-10-26T00:17:54.510Z,21.97
2022-10-26T00:19:16.518Z,21.03
2022-10-26T00:20:38.590Z,16.47
2022-10-26T00:22:00.851Z,26.63
2022-10-26T00:23:22.843Z,20.23
2022-10-26T00:24:45.373Z,16.00
2022-10-26T00:26:07.948Z,15.40
2022-10-26T00:27:29.934Z,18.40
2022-10-26T00:28:55.387Z,15.93
2022-10-26T00:30:17.474Z,17.27
2022-10-26T00:31:39.766Z,22.70
2022-10-26T00:33:01.776Z,21.90
2022-10-26T00:34:23.753Z,13.00
2022-10-26T00:35:53.118Z,23.70
2022-10-26T00:37:15.121Z,16.57
2022-10-26T00:38:37.928Z,18.90
2022-10-26T00:39:59.928Z,20.70
2022-10-26T00:41:27.466Z,13.67
2022-10-26T00:42:49.883Z,19.97
2022-10-26T00:44:45.853Z,19.30
2022-10-26T00:46:20.037Z,18.30
2022-10-26T00:47:50.859Z,16.83
2022-10-26T00:49:16.816Z,15.87
2022-10-26T00:50:42.886Z,15.90
2022-10-26T00:52:06.528Z,16.13
2022-10-26T00:53:29.763Z,17.77
2022-10-26T00:54:54.134Z,15.53
2022-10-26T00:56:16.605Z,20.33
2022-10-26T00:57:39.678Z,14.70
2022-10-26T00:59:05.594Z,19.63
2022-10-26T01:00:27.729Z,25.17
2022-10-26T01:01:51.566Z,21.57
2022-10-26T01:03:14.433Z,18.90
2022-10-26T01:04:36.809Z,26.00
2022-10-26T01:05:59.215Z,18.47
2022-10-26T01:08:44.503Z,17.40
2022-10-26T01:10:07.460Z,15.67
2022-10-26T01:11:29.710Z,19.90
2022-10-26T01:12:52.926Z,16.37
2022-10-26T01:14:19.034Z,16.27
2022-10-26T01:16:03.895Z,15.97
2022-10-26T01:17:35.274Z,28.33
2022-10-26T01:19:09.872Z,15.87
2022-10-26T01:20:51.229Z,19.30
2022-10-26T01:22:19.831Z,18.10
2022-10-26T01:24:06.173Z,28.83
2022-10-26T01:25:46.247Z,23.63
2022-10-26T01:27:28.380Z,20.50
2022-10-26T01:28:50.463Z,22.87
2022-10-26T01:30:34.572Z,21.53
2022-10-26T01:32:08.753Z,17.20
2022-10-26T01:33:49.707Z,19.67
2022-10-26T01:35:26.456Z,14.37
2022-10-26T01:37:04.798Z,17.80
2022-10-26T01:38:55.006Z,17.23
2022-10-26T01:40:27.359Z,16.30
2022-10-26T01:41:52.493Z,22.83
2022-10-26T01:43:17.132Z,16.17
2022-10-26T01:44:59.529Z,20.23
2022-10-26T01:46:24.618Z,17.00
2022-10-26T01:47:48.663Z,18.60
2022-10-26T01:49:14.500Z,25.17
2022-10-26T01:50:37.631Z,17.57
2022-10-26T01:51:59.773Z,17.13
2022-10-26T01:53:25.018Z,21.07
2022-10-26T01:54:47.397Z,18.50
2022-10-26T01:56:19.153Z,18.90
2022-10-26T01:57:41.255Z,20.13
2022-10-26T01:59:20.028Z,20.87
2022-10-26T02:00:49.862Z,22.73
2022-10-26T02:02:22.153Z,19.93
2022-10-26T02:04:07.443Z,18.60
2022-10-26T02:05:59.930Z,21.43
2022-10-26T02:07:30.529Z,23.93
2022-10-26T02:09:11.891Z,20.20
2022-10-26T02:10:55.166Z,19.37
2022-10-26T02:12:58.472Z,18.50
2022-10-26T02:15:04.826Z,20.17
2022-10-26T02:16:38.634Z,23.63
2022-10-26T02:18:33.213Z,25.53
2022-10-26T02:20:02.712Z,23.63
2022-10-26T02:21:32.031Z,21.43
2022-10-26T02:22:56.232Z,20.33
2022-10-26T02:24:19.893Z,18.57
2022-10-26T02:25:48.004Z,17.90
2022-10-26T02:27:16.548Z,26.23
2022-10-26T02:28:43.724Z,20.93
2022-10-26T02:30:07.132Z,16.10
2022-10-26T02:31:31.342Z,19.90
2022-10-26T02:32:55.820Z,24.80
2022-10-26T02:34:24.043Z,20.57
2022-10-26T02:35:50.569Z,17.37
2022-10-26T02:37:15.784Z,22.17
2022-10-26T02:38:40.027Z,23.43
2022-10-26T02:40:06.570Z,23.03
2022-10-26T02:41:30.766Z,21.70
2022-10-26T02:42:56.224Z,19.60
2022-10-26T02:44:29.360Z,25.00
2022-10-26T02:45:59.408Z,17.53
2022-10-26T02:47:22.400Z,18.50
2022-10-26T02:48:44.835Z,19.83
2022-10-26T02:50:07.234Z,21.33
2022-10-26T02:51:39.210Z,24.43
2022-10-26T02:53:27.595Z,20.50
2022-10-26T02:55:01.600Z,20.70
2022-10-26T02:56:40.263Z,20.97
2022-10-26T02:58:06.825Z,17.80
2022-10-26T02:59:34.195Z,21.83
2022-10-26T03:00:57.258Z,17.93
2022-10-26T03:02:20.767Z,23.60
2022-10-26T03:03:43.030Z,18.33
2022-10-26T03:05:19.541Z,22.90
2022-10-26T03:06:41.630Z,26.10
2022-10-26T03:08:04.249Z,21.40
2022-10-26T03:09:26.990Z,18.83
2022-10-26T03:10:48.957Z,18.60
2022-10-26T03:12:11.109Z,29.47
2022-10-26T03:13:33.225Z,25.00
2022-10-26T03:14:55.347Z,20.03
2022-10-26T03:16:17.515Z,23.43
2022-10-26T03:17:39.691Z,20.03
2022-10-26T03:19:01.888Z,25.33
2022-10-26T03:20:24.077Z,23.30
2022-10-26T03:21:46.139Z,31.17
2022-10-26T03:23:08.342Z,18.07
2022-10-26T03:24:30.456Z,23.43
2022-10-26T03:25:56.531Z,19.60
2022-10-26T03:27:18.656Z,19.30
2022-10-26T03:28:40.931Z,23.30
2022-10-26T03:30:03.183Z,19.03
2022-10-26T03:31:25.395Z,20.03
2022-10-26T03:32:47.602Z,19.40
2022-10-26T03:34:09.714Z,21.30
2022-10-26T03:35:32.230Z,28.83
2022-10-26T03:36:54.315Z,18.23
2022-10-26T03:38:16.431Z,18.57
2022-10-26T03:39:38.535Z,25.30
2022-10-26T03:41:00.905Z,21.03
2022-10-26T03:42:22.945Z,23.40
2022-10-26T03:43:44.983Z,22.87
2022-10-26T03:45:08.684Z,21.93
2022-10-26T03:46:30.896Z,20.67
2022-10-26T03:47:53.183Z,19.50
2022-10-26T03:49:15.277Z,23.33
2022-10-26T03:50:37.446Z,21.80
2022-10-26T03:51:59.631Z,20.80
2022-10-26T03:53:21.794Z,21.43
2022-10-26T03:54:43.905Z,23.10
2022-10-26T03:56:06.379Z,19.97
2022-10-26T03:57:28.430Z,22.93
2022-10-26T03:58:50.449Z,18.10
2022-10-26T04:00:17.673Z,20.33
2022-10-26T04:01:40.328Z,20.60
2022-10-26T04:03:02.458Z,20.30
2022-10-26T04:04:24.564Z,21.67
2022-10-26T04:05:46.622Z,22.17
2022-10-26T04:07:08.660Z,23.07
2022-10-26T04:08:30.689Z,25.50
2022-10-26T04:09:52.715Z,27.60
2022-10-26T04:11:14.782Z,22.77
2022-10-26T04:12:38.321Z,21.10
2022-10-26T04:14:00.621Z,25.57
2022-10-26T04:15:23.332Z,24.63
2022-10-26T04:16:45.344Z,18.57
2022-10-26T04:18:07.321Z,21.77
2022-10-26T04:19:29.291Z,23.10
2022-10-26T04:20:51.314Z,24.53
2022-10-26T04:22:13.468Z,19.93
2022-10-26T04:23:35.465Z,16.17
2022-10-26T04:24:57.528Z,22.60
2022-10-26T04:26:19.595Z,24.97
2022-10-26T04:27:41.604Z,27.73
2022-10-26T04:29:06.703Z,21.97
2022-10-26T04:30:28.746Z,27.03
2022-10-26T04:31:51.025Z,24.03
2022-10-26T04:33:13.185Z,25.70
2022-10-26T04:34:35.226Z,22.47
2022-10-26T04:36:03.470Z,19.70
2022-10-26T04:37:25.461Z,23.80
2022-10-26T04:38:49.283Z,35.37
2022-10-26T04:40:11.669Z,24.67
2022-10-26T04:41:33.668Z,24.03
2022-10-26T04:42:55.737Z,26.00
2022-10-26T04:44:17.758Z,25.00
2022-10-26T04:45:39.839Z,28.53
2022-10-26T04:47:01.897Z,26.00
2022-10-26T04:49:46.723Z,21.00
2022-10-26T04:51:08.865Z,22.30
2022-10-26T04:52:31.046Z,25.20
2022-10-26T04:53:55.989Z,19.37
2022-10-26T04:55:18.018Z,24.20
2022-10-26T04:56:40.080Z,22.40
2022-10-26T04:58:02.525Z,22.07
2022-10-26T04:59:24.689Z,18.80
2022-10-26T05:00:46.744Z,16.57
2022-10-26T05:02:08.844Z,24.23
2022-10-26T05:03:30.944Z,22.73
2022-10-26T05:04:53.030Z,25.87
2022-10-26T05:06:15.143Z,21.67
2022-10-26T05:07:37.341Z,19.17
2022-10-26T05:08:59.377Z,24.20
2022-10-26T05:10:21.451Z,28.87
2022-10-26T05:11:43.544Z,23.70
2022-10-26T05:13:05.633Z,25.80
2022-10-26T05:14:27.661Z,19.73
2022-10-26T05:15:53.533Z,20.73
2022-10-26T05:17:15.828Z,27.27
2022-10-26T05:18:37.908Z,28.80
2022-10-26T05:20:05.691Z,26.37
2022-10-26T05:21:27.734Z,25.30
2022-10-26T05:22:56.774Z,21.83
2022-10-26T05:24:19.108Z,24.53
2022-10-26T05:25:41.107Z,22.30
2022-10-26T05:27:03.257Z,23.47
2022-10-26T05:28:25.359Z,24.27
2022-10-26T05:29:47.347Z,26.03
2022-10-26T05:31:09.404Z,22.50
2022-10-26T05:32:31.453Z,23.10
2022-10-26T05:33:53.501Z,26.73
2022-10-26T05:35:15.627Z,21.20
2022-10-26T05:36:37.871Z,21.77
2022-10-26T05:38:00.306Z,20.60
2022-10-26T05:39:22.794Z,26.23
2022-10-26T05:40:52.681Z,26.30
2022-10-26T05:42:14.724Z,30.80
2022-10-26T05:43:36.768Z,29.97
2022-10-26T05:44:58.898Z,22.93
2022-10-26T05:46:20.977Z,32.63
2022-10-26T05:47:44.190Z,24.43
2022-10-26T05:49:06.255Z,19.83
2022-10-26T05:50:28.251Z,23.57
2022-10-26T05:51:50.243Z,23.83
2022-10-26T05:53:12.501Z,25.70
2022-10-26T05:54:34.514Z,28.13
2022-10-26T05:55:57.268Z,28.33
2022-10-26T05:57:19.607Z,21.30
2022-10-26T05:58:41.845Z,26.70
2022-10-26T06:00:24.234Z,24.43
2022-10-26T06:01:46.338Z,28.67
2022-10-26T06:05:04.262Z,21.40
2022-10-26T06:06:27.941Z,23.40
2022-10-26T06:07:50.745Z,18.57
2022-10-26T06:09:14.645Z,24.37
2022-10-26T06:10:37.792Z,24.77
2022-10-26T06:12:01.769Z,22.37
2022-10-26T06:13:24.056Z,26.90
2022-10-26T06:14:46.354Z,24.33
2022-10-26T06:16:20.667Z,19.50
2022-10-26T06:17:42.677Z,21.07
2022-10-26T06:19:33.540Z,23.37
2022-10-26T06:21:18.943Z,21.47
2022-10-26T06:23:01.960Z,23.10
2022-10-26T06:24:41.762Z,20.10
2022-10-26T06:26:18.362Z,20.37
2022-10-26T06:27:52.267Z,21.93
2022-10-26T06:29:36.925Z,25.50
2022-10-26T06:30:58.992Z,25.17
2022-10-26T06:32:23.894Z,23.00
2022-10-26T06:33:46.274Z,21.00
2022-10-26T06:35:08.415Z,22.40
2022-10-26T06:36:31.283Z,25.47
2022-10-26T06:37:55.659Z,19.07
2022-10-26T06:39:19.372Z,20.43
2022-10-26T06:40:43.833Z,28.43
2022-10-26T06:42:07.302Z,20.83
2022-10-26T06:43:32.588Z,24.50
2022-10-26T06:44:54.932Z,22.83
2022-10-26T06:46:49.754Z,21.10
2022-10-26T06:48:19.256Z,19.00
2022-10-26T06:49:56.956Z,24.90
2022-10-26T06:51:20.584Z,23.43
2022-10-26T06:52:51.631Z,19.30
2022-10-26T06:54:36.894Z,18.70
2022-10-26T06:56:00.209Z,20.77
2022-10-26T06:57:24.367Z,19.90
2022-10-26T06:58:47.918Z,19.63
2022-10-26T07:00:25.238Z,18.60
2022-10-26T07:01:47.789Z,23.20
2022-10-26T07:03:10.052Z,19.43
2022-10-26T07:04:33.313Z,21.20
2022-10-26T07:05:55.349Z,18.83
2022-10-26T07:07:20.896Z,21.37
2022-10-26T07:08:42.924Z,22.73
2022-10-26T07:10:07.118Z,20.13
2022-10-26T07:11:29.082Z,18.40
2022-10-26T07:12:51.081Z,21.20
2022-10-26T07:14:13.111Z,24.50
2022-10-26T07:15:39.582Z,31.20
2022-10-26T07:17:01.879Z,19.97
2022-10-26T07:18:23.929Z,21.00
2022-10-26T07:19:46.059Z,19.40
2022-10-26T07:21:08.083Z,17.13
2022-10-26T07:22:30.083Z,15.93
2022-10-26T07:23:52.607Z,18.33
2022-10-26T07:25:14.694Z,21.60
2022-10-26T07:26:36.743Z,20.63
2022-10-26T07:27:59.612Z,14.27
2022-10-26T07:29:23.060Z,19.40
2022-10-26T07:30:45.174Z,18.97
2022-10-26T07:32:07.327Z,16.27
2022-10-26T07:33:29.310Z,14.03
2022-10-26T07:34:51.329Z,20.40
2022-10-26T07:36:13.478Z,15.27
2022-10-26T07:37:35.694Z,17.70
2022-10-26T07:38:57.727Z,17.13
2022-10-26T07:40:19.750Z,22.83
2022-10-26T07:41:41.794Z,17.20
2022-10-26T07:43:03.899Z,17.10
2022-10-26T07:44:25.887Z,19.67
2022-10-26T07:45:51.599Z,19.37
2022-10-26T07:47:13.649Z,17.30
2022-10-26T07:48:35.755Z,13.90
2022-10-26T07:49:57.794Z,16.83
2022-10-26T07:51:20.280Z,13.57
2022-10-26T07:52:42.383Z,15.90
2022-10-26T07:54:04.522Z,14.30
2022-10-26T07:55:27.590Z,16.10
2022-10-26T07:56:50.273Z,17.53
2022-10-26T07:58:12.342Z,19.10
2022-10-26T07:59:34.396Z,24.60
2022-10-26T08:00:56.980Z,14.10
2022-10-26T08:02:19.312Z,16.57
2022-10-26T08:03:41.732Z,18.40
2022-10-26T08:05:04.513Z,15.40
2022-10-26T08:06:26.599Z,16.83
2022-10-26T08:07:49.209Z,12.70
2022-10-26T08:09:11.513Z,13.90
2022-10-26T08:10:33.703Z,17.23
2022-10-26T08:11:55.759Z,16.97
2022-10-26T08:13:17.966Z,13.67
2022-10-26T08:14:39.981Z,10.77
2022-10-26T08:16:05.402Z,11.60
2022-10-26T08:17:29.215Z,14.23
2022-10-26T08:18:51.603Z,13.57
2022-10-26T08:20:13.669Z,15.00
2022-10-26T08:21:39.478Z,16.80
2022-10-26T08:23:06.072Z,16.43
2022-10-26T08:24:28.867Z,16.00
2022-10-26T08:25:50.959Z,18.40
2022-10-26T08:27:14.981Z,10.87
2022-10-26T08:28:37.573Z,16.07
2022-10-26T08:29:59.602Z,19.40
2022-10-26T08:31:21.609Z,19.60
2022-10-26T08:32:44.152Z,13.83
2022-10-26T08:34:06.213Z,10.13
2022-10-26T08:35:28.846Z,14.00
2022-10-26T08:36:50.834Z,13.70
2022-10-26T08:38:12.798Z,14.73
2022-10-26T08:39:34.793Z,14.70
2022-10-26T08:40:59.866Z,13.40
2022-10-26T08:42:42.480Z,11.50
2022-10-26T08:44:27.701Z,14.43
2022-10-26T08:46:15.200Z,14.93
2022-10-26T08:47:44.875Z,11.87
2022-10-26T08:49:34.963Z,13.90
2022-10-26T08:51:01.500Z,12.80
2022-10-26T08:52:37.217Z,15.30
2022-10-26T08:54:10.616Z,15.40
2022-10-26T08:55:45.009Z,12.90
2022-10-26T08:57:41.295Z,20.57
2022-10-26T08:59:31.503Z,14.50
2022-10-26T09:00:53.651Z,14.33
2022-10-26T09:02:17.641Z,14.97
2022-10-26T09:03:39.924Z,15.30
2022-10-26T09:05:02.402Z,14.53
2022-10-26T09:06:59.693Z,15.10
2022-10-26T09:08:28.738Z,15.23
2022-10-26T09:10:09.348Z,17.53
2022-10-26T09:11:50.128Z,17.03
2022-10-26T09:13:20.698Z,24.80
2022-10-26T09:15:04.369Z,14.87
2022-10-26T09:16:30.435Z,12.13
2022-10-26T09:18:10.881Z,16.07
2022-10-26T09:19:54.135Z,16.53
2022-10-26T09:21:47.259Z,19.10
2022-10-26T09:23:33.518Z,17.70
2022-10-26T09:24:56.674Z,14.67
2022-10-26T09:26:41.706Z,18.70
2022-10-26T09:28:04.971Z,13.63
2022-10-26T09:29:33.353Z,20.27
2022-10-26T09:30:59.330Z,17.07
2022-10-26T09:32:26.634Z,14.40
2022-10-26T09:33:48.903Z,14.80
2022-10-26T09:35:27.841Z,24.17
2022-10-26T09:36:55.260Z,12.57
2022-10-26T09:38:28.448Z,15.67
2022-10-26T09:40:05.852Z,13.03
2022-10-26T09:41:33.655Z,13.20
2022-10-26T09:43:02.352Z,12.30
2022-10-26T09:45:11.774Z,15.87
2022-10-26T09:46:55.193Z,23.37
2022-10-26T09:48:43.080Z,15.50
2022-10-26T09:50:29.162Z,15.53
2022-10-26T09:51:51.212Z,11.90
2022-10-26T09:53:13.337Z,20.63
2022-10-26T09:54:35.396Z,11.17
2022-10-26T09:56:11.172Z,15.10
2022-10-26T09:57:33.353Z,12.10
2022-10-26T09:59:03.286Z,12.27
2022-10-26T10:00:26.423Z,18.60
2022-10-26T10:01:48.549Z,13.57
2022-10-26T10:03:28.162Z,12.30
2022-10-26T10:04:50.200Z,12.17
2022-10-26T10:06:19.969Z,12.43
2022-10-26T10:07:41.972Z,10.90
2022-10-26T10:09:11.160Z,14.73
2022-10-26T10:10:33.415Z,17.40
2022-10-26T10:12:05.294Z,12.47
2022-10-26T10:13:33.259Z,13.43
2022-10-26T10:14:58.356Z,12.23
2022-10-26T10:16:24.820Z,10.70
2022-10-26T10:17:58.306Z,15.97
2022-10-26T10:19:34.781Z,10.67
2022-10-26T10:20:59.409Z,20.03
2022-10-26T10:22:25.859Z,11.47
2022-10-26T10:23:51.959Z,9.63
2022-10-26T10:25:26.088Z,10.60
2022-10-26T10:27:24.974Z,12.73
2022-10-26T10:28:58.887Z,10.60
2022-10-26T10:30:27.335Z,12.60
2022-10-26T10:31:56.780Z,19.20
2022-10-26T10:33:18.764Z,8.77
2022-10-26T10:34:40.917Z,14.90
2022-10-26T10:36:06.259Z,11.20
2022-10-26T10:37:44.297Z,20.70
2022-10-26T10:39:45.053Z,13.23
2022-10-26T10:41:29.374Z,8.50
2022-10-26T10:42:54.804Z,16.57
2022-10-26T10:44:30.057Z,14.00
2022-10-26T10:45:55.894Z,8.37
2022-10-26T10:47:28.513Z,12.20
2022-10-26T10:49:02.148Z,9.23
2022-10-26T10:50:24.563Z,12.43
2022-10-26T10:51:48.212Z,17.27
2022-10-26T10:53:38.281Z,19.77
2022-10-26T10:55:15.261Z,14.97
2022-10-26T10:56:52.800Z,12.00
2022-10-26T10:58:26.908Z,13.97
2022-10-26T11:00:09.652Z,12.03
2022-10-26T11:01:44.431Z,15.23
2022-10-26T11:03:25.959Z,19.93
2022-10-26T11:04:48.182Z,15.57
2022-10-26T11:06:10.182Z,19.10
2022-10-26T11:07:39.251Z,16.50
2022-10-26T11:09:12.251Z,13.83
2022-10-26T11:10:39.119Z,15.80
2022-10-26T11:12:27.525Z,12.50
2022-10-26T11:13:49.757Z,13.07
2022-10-26T11:15:19.662Z,11.13
2022-10-26T11:16:50.301Z,15.43
2022-10-26T11:18:18.342Z,9.90
2022-10-26T11:19:57.612Z,13.50
2022-10-26T11:21:26.164Z,11.50
2022-10-26T11:23:18.098Z,13.40
2022-10-26T11:24:54.932Z,15.53
2022-10-26T11:26:43.630Z,13.13
2022-10-26T11:28:20.792Z,10.80
2022-10-26T11:30:01.602Z,16.27
2022-10-26T11:31:31.127Z,11.87
2022-10-26T11:33:27.024Z,15.80
2022-10-26T11:35:17.014Z,14.10
2022-10-26T11:36:41.941Z,14.23
2022-10-26T11:38:32.922Z,15.93
2022-10-26T11:40:47.807Z,13.33
2022-10-26T11:42:20.932Z,12.77
2022-10-26T11:43:48.688Z,7.90
2022-10-26T11:45:19.369Z,14.47
2022-10-26T11:46:45.939Z,11.73
2022-10-26T11:48:20.519Z,12.03
2022-10-26T11:49:49.544Z,6.87
2022-10-26T11:51:21.614Z,13.90
2022-10-26T11:52:48.114Z,12.00
2022-10-26T11:55:54.424Z,6.60
2022-10-26T11:57:16.980Z,11.70
2022-10-26T11:58:40.029Z,10.20
2022-10-26T12:00:13.046Z,12.20
2022-10-26T12:01:35.219Z,14.37
2022-10-26T12:03:01.332Z,9.37
2022-10-26T12:04:29.515Z,12.87
2022-10-26T12:05:52.773Z,12.73
2022-10-26T12:07:23.323Z,8.67
2022-10-26T12:08:59.440Z,13.00
2022-10-26T12:10:32.222Z,7.20
2022-10-26T12:12:32.596Z,12.53
2022-10-26T12:14:02.420Z,13.87
2022-10-26T12:16:01.807Z,8.90
2022-10-26T12:17:30.747Z,10.30
2022-10-26T12:19:06.669Z,10.27
2022-10-26T12:20:56.723Z,7.67
2022-10-26T12:22:20.924Z,6.13
2022-10-26T12:24:02.372Z,9.23
2022-10-26T12:25:24.502Z,10.10
2022-10-26T12:26:58.200Z,9.33
2022-10-26T12:28:35.542Z,9.50
2022-10-26T12:30:17.313Z,11.37
2022-10-26T12:31:39.280Z,17.23
2022-10-26T12:33:06.135Z,9.20
2022-10-26T12:34:31.273Z,11.93
2022-10-26T12:35:53.309Z,11.17
2022-10-26T12:37:44.795Z,14.00
2022-10-26T12:39:29.008Z,10.03
2022-10-26T12:41:10.776Z,12.67
2022-10-26T12:42:41.455Z,11.57
2022-10-26T12:44:41.682Z,8.90
2022-10-26T12:46:12.327Z,8.67
2022-10-26T12:47:34.302Z,15.50
2022-10-26T12:48:59.860Z,9.73
2022-10-26T12:50:25.333Z,9.80
2022-10-26T12:51:48.562Z,12.40
2022-10-26T12:53:17.240Z,10.13
2022-10-26T12:54:55.196Z,15.40
2022-10-26T12:56:24.352Z,9.00
2022-10-26T12:57:46.351Z,7.87
2022-10-26T12:59:20.122Z,10.60
2022-10-26T13:01:07.374Z,10.33
2022-10-26T13:02:57.409Z,12.73
2022-10-26T13:04:44.347Z,10.37
2022-10-26T13:06:34.140Z,10.10
2022-10-26T13:08:08.166Z,8.10
2022-10-26T13:09:33.171Z,15.40
2022-10-26T13:11:05.567Z,8.53
2022-10-26T13:12:35.895Z,10.30
2022-10-26T13:14:01.728Z,10.57
2022-10-26T13:15:32.483Z,12.87
2022-10-26T13:16:55.047Z,9.40
2022-10-26T13:18:19.570Z,10.73
2022-10-26T13:19:46.890Z,10.17
2022-10-26T13:21:12.820Z,6.30
2022-10-26T13:22:47.347Z,7.20
2022-10-26T13:24:14.829Z,6.90
2022-10-26T13:25:42.898Z,5.70
2022-10-26T13:27:04.890Z,11.53
2022-10-26T13:28:42.088Z,6.93
2022-10-26T13:30:04.071Z,6.17
2022-10-26T13:31:28.872Z,7.70
2022-10-26T13:32:55.517Z,9.20
2022-10-26T13:34:20.298Z,6.57
2022-10-26T13:35:43.652Z,5.17
2022-10-26T13:37:23.391Z,6.60
2022-10-26T13:38:47.340Z,8.93
2022-10-26T13:40:18.289Z,8.80
2022-10-26T13:41:44.529Z,8.37
2022-10-26T13:43:13.496Z,10.40
2022-10-26T13:44:43.654Z,5.47
2022-10-26T13:46:05.886Z,9.80
2022-10-26T13:48:07.779Z,11.40
2022-10-26T13:49:41.426Z,7.20
2022-10-26T13:51:19.024Z,14.20
2022-10-26T13:52:52.165Z,10.20
2022-10-26T13:54:33.201Z,9.50
2022-10-26T13:56:13.446Z,12.53
2022-10-26T13:57:38.458Z,4.80
2022-10-26T13:59:10.350Z,11.77
2022-10-26T14:00:32.531Z,7.23
2022-10-26T14:02:13.991Z,9.97
2022-10-26T14:03:36.955Z,11.10
2022-10-26T14:05:05.594Z,4.83
2022-10-26T14:06:38.434Z,8.37
2022-10-26T14:08:00.539Z,11.90
2022-10-26T14:09:23.138Z,9.60
2022-10-26T14:11:05.621Z,5.83
2022-10-26T14:12:31.192Z,8.23
2022-10-26T14:13:53.500Z,11.17
2022-10-26T14:15:16.355Z,7.33
2022-10-26T14:16:46.461Z,8.87
2022-10-26T14:18:19.170Z,4.73
2022-10-26T14:19:41.739Z,11.33
2022-10-26T14:21:07.026Z,12.27
2022-10-26T14:22:30.435Z,6.40
2022-10-26T14:24:00.431Z,9.87
2022-10-26T14:25:42.244Z,8.30
2022-10-26T14:27:18.471Z,8.20
2022-10-26T14:28:50.560Z,7.40
2022-10-26T14:30:23.893Z,6.97
2022-10-26T14:31:46.509Z,11.13
2022-10-26T14:33:26.014Z,10.30
2022-10-26T14:34:48.275Z,8.77
2022-10-26T14:36:11.333Z,8.37
2022-10-26T14:37:59.351Z,5.40
2022-10-26T14:39:21.364Z,8.67
2022-10-26T14:40:44.244Z,10.20
2022-10-26T14:42:24.887Z,7.23
2022-10-26T14:43:47.178Z,8.70
2022-10-26T14:45:47.741Z,9.17
2022-10-26T14:47:24.393Z,8.23
2022-10-26T14:48:58.215Z,10.20
2022-10-26T14:50:23.253Z,10.73
2022-10-26T14:51:45.373Z,9.20
2022-10-26T14:53:19.837Z,7.87
2022-10-26T14:54:41.910Z,8.03
2022-10-26T14:56:05.709Z,11.00
2022-10-26T14:57:40.022Z,13.80
2022-10-26T14:59:12.917Z,10.00
2022-10-26T15:00:35.272Z,12.97
2022-10-26T15:01:59.188Z,12.17
2022-10-26T15:03:22.146Z,11.50
2022-10-26T15:05:15.851Z,13.07
2022-10-26T15:06:43.112Z,11.73
2022-10-26T15:08:33.773Z,8.33
2022-10-26T15:10:36.437Z,10.57
2022-10-26T15:11:58.876Z,11.23
2022-10-26T15:13:23.677Z,8.53
2022-10-26T15:14:45.927Z,8.60
2022-10-26T15:16:10.852Z,8.30
2022-10-26T15:17:38.623Z,7.57
2022-10-26T15:19:11.823Z,18.23
2022-10-26T15:20:34.775Z,14.10
2022-10-26T15:21:57.327Z,18.17
2022-10-26T15:23:21.830Z,16.33
2022-10-26T15:24:43.885Z,14.63
2022-10-26T15:26:10.668Z,13.50
2022-10-26T15:27:32.849Z,16.53
2022-10-26T15:28:55.554Z,14.53
2022-10-26T15:30:28.030Z,12.83
2022-10-26T15:33:27.824Z,13.20
2022-10-26T15:35:11.435Z,14.73
2022-10-26T15:36:35.717Z,14.30
2022-10-26T15:37:59.025Z,14.57
2022-10-26T15:39:22.401Z,18.73
2022-10-26T15:40:44.830Z,14.17
2022-10-26T15:42:13.503Z,16.63
2022-10-26T15:43:35.560Z,18.77
2022-10-26T15:44:59.130Z,14.07
2022-10-26T15:46:22.248Z,12.80
2022-10-26T15:47:44.595Z,12.03
2022-10-26T15:49:14.424Z,11.27
2022-10-26T15:50:37.844Z,14.53
2022-10-26T15:52:02.675Z,18.83
2022-10-26T15:53:29.646Z,11.30
2022-10-26T15:54:51.673Z,18.40
2022-10-26T15:56:19.673Z,11.20
2022-10-26T15:57:41.916Z,11.83
2022-10-26T15:59:03.959Z,8.93
2022-10-26T16:00:26.088Z,13.07
2022-10-26T16:01:48.259Z,12.63
2022-10-26T16:03:14.652Z,12.90
2022-10-26T16:04:36.638Z,12.67
2022-10-26T16:06:01.002Z,22.93
2022-10-26T16:07:26.121Z,14.27
2022-10-26T16:08:51.486Z,12.30
2022-10-26T16:10:21.796Z,9.97
2022-10-26T16:11:44.973Z,8.93
2022-10-26T16:13:13.753Z,15.50
2022-10-26T16:14:53.356Z,11.20
2022-10-26T16:16:19.792Z,12.00
2022-10-26T16:17:41.776Z,11.90
2022-10-26T16:19:29.242Z,11.37
2022-10-26T16:20:46.116Z,11.77
2022-10-26T16:22:09.486Z,12.83
2022-10-26T16:23:31.648Z,10.23
2022-10-26T16:24:53.657Z,9.10
2022-10-26T16:26:16.130Z,7.53
2022-10-26T16:27:38.200Z,10.37
2022-10-26T16:29:00.178Z,17.30
2022-10-26T16:30:25.799Z,12.27
2022-10-26T16:31:49.299Z,11.07
2022-10-26T16:33:11.403Z,16.77
2022-10-26T16:34:33.414Z,9.93
2022-10-26T16:35:59.696Z,12.60
2022-10-26T16:37:21.790Z,10.77
2022-10-26T16:38:43.866Z,11.90
2022-10-26T16:40:06.986Z,9.70
2022-10-26T16:41:28.983Z,11.60
2022-10-26T16:42:51.276Z,10.70
2022-10-26T16:44:13.622Z,11.40
2022-10-26T16:45:35.681Z,12.10
2022-10-26T16:46:57.733Z,10.70
2022-10-26T16:48:19.728Z,8.00
2022-10-26T16:49:43.375Z,12.00
2022-10-26T16:51:10.324Z,12.50
2022-10-26T16:52:34.704Z,11.40
2022-10-26T16:53:57.857Z,11.13
2022-10-26T16:55:24.365Z,11.37
2022-10-26T16:56:46.368Z,11.63
2022-10-26T16:58:08.415Z,11.90
2022-10-26T16:59:30.688Z,15.40
2022-10-26T17:00:56.172Z,10.70
2022-10-26T17:02:18.384Z,8.90
2022-10-26T17:03:40.517Z,10.83
2022-10-26T17:05:06.025Z,13.63
2022-10-26T17:06:29.700Z,12.07
2022-10-26T17:07:51.873Z,15.00
2022-10-26T17:09:14.383Z,18.10
2022-10-26T17:10:36.406Z,16.60
2022-10-26T17:12:01.923Z,12.73
2022-10-26T17:13:24.300Z,10.40
2022-10-26T17:14:46.417Z,11.37
2022-10-26T17:16:14.921Z,13.73
2022-10-26T17:17:36.907Z,11.73
2022-10-26T17:18:58.912Z,13.93
2022-10-26T17:20:20.946Z,10.60
2022-10-26T17:21:44.393Z,12.80
2022-10-26T17:23:06.574Z,10.53
2022-10-26T17:24:28.638Z,10.37
2022-10-26T17:25:50.776Z,11.73
2022-10-26T17:27:12.808Z,12.50
2022-10-26T17:28:35.183Z,11.63
2022-10-26T17:29:57.193Z,11.23
2022-10-26T17:31:19.331Z,9.20
2022-10-26T17:32:41.391Z,10.63
2022-10-26T17:34:03.407Z,13.07
2022-10-26T17:35:25.448Z,9.93
2022-10-26T17:36:47.644Z,13.80
2022-10-26T17:38:09.623Z,10.60
2022-10-26T17:39:31.815Z,11.23
2022-10-26T17:40:53.890Z,8.43
2022-10-26T17:42:16.263Z,7.87
2022-10-26T17:43:40.576Z,12.17
2022-10-26T17:45:02.955Z,14.43
2022-10-26T17:46:26.462Z,9.67
2022-10-26T17:47:48.826Z,12.20
2022-10-26T17:49:11.251Z,12.23
2022-10-26T17:50:33.254Z,8.30
2022-10-26T17:51:55.298Z,11.20
2022-10-26T17:53:17.552Z,12.20
2022-10-26T17:54:39.686Z,7.90
2022-10-26T17:56:07.613Z,9.53
2022-10-26T17:57:30.078Z,8.20
2022-10-26T17:58:54.039Z,10.60
2022-10-26T18:00:18.227Z,15.33
2022-10-26T18:01:40.351Z,11.30
2022-10-26T18:03:02.506Z,13.03
2022-10-26T18:04:24.705Z,12.50
2022-10-26T18:05:52.645Z,10.90
2022-10-26T18:07:14.752Z,12.97
2022-10-26T18:08:38.003Z,11.60
2022-10-26T18:10:08.992Z,11.87
2022-10-26T18:11:42.094Z,10.23
2022-10-26T18:13:04.171Z,16.00
2022-10-26T18:14:26.254Z,9.10
2022-10-26T18:15:48.393Z,9.50
2022-10-26T18:17:10.375Z,12.47
2022-10-26T18:18:32.967Z,15.47
2022-10-26T18:19:55.105Z,14.00
2022-10-26T18:21:20.027Z,14.70
2022-10-26T18:22:42.106Z,10.40
2022-10-26T18:24:05.644Z,11.83
2022-10-26T18:25:28.573Z,9.97
2022-10-26T18:26:50.631Z,9.87
2022-10-26T18:28:12.890Z,12.67
2022-10-26T18:29:37.468Z,13.03
2022-10-26T18:31:09.617Z,11.77
2022-10-26T18:32:31.688Z,11.10
2022-10-26T18:33:58.681Z,10.93
2022-10-26T18:35:20.716Z,9.23
2022-10-26T18:36:42.963Z,11.37
2022-10-26T18:38:05.026Z,11.50
2022-10-26T18:39:27.095Z,9.53
2022-10-26T18:40:53.393Z,8.40
2022-10-26T18:42:15.505Z,9.33
2022-10-26T18:43:42.714Z,11.17
2022-10-26T18:45:05.152Z,11.20
2022-10-26T18:46:29.843Z,12.30
2022-10-26T18:47:52.845Z,9.80
2022-10-26T18:49:16.633Z,12.87
2022-10-26T18:50:38.706Z,11.83
2022-10-26T18:52:00.730Z,10.67
2022-10-26T18:53:22.794Z,13.63
2022-10-26T18:54:44.792Z,15.83
2022-10-26T18:56:09.307Z,12.67
2022-10-26T18:57:31.392Z,13.33
2022-10-26T18:58:58.423Z,12.67
2022-10-26T19:00:20.544Z,11.47
2022-10-26T19:01:42.939Z,11.77